TimeCST,TemperatureF,Dew PointF,Humidity,Sea Level PressureIn,VisibilityMPH,Wind Direction,Wind SpeedMPH,Gust SpeedMPH,PrecipitationIn,Events,Conditions,WindDirDegrees,DateUTC
12:53 AM,18.0,10.9,74,30.45,10.0,SW,5.8,-,N/A,,Clear,220,2013-01-18 06:53:00
1:53 AM,18.0,10.9,74,30.47,10.0,SW,8.1,-,N/A,,Clear,230,2013-01-18 07:53:00
2:53 AM,18.0,10.9,74,30.45,10.0,SW,3.5,-,N/A,,Clear,230,2013-01-18 08:53:00
3:53 AM,17.1,12.9,84,30.45,10.0,SW,4.6,-,N/A,,Clear,220,2013-01-18 09:53:00
4:53 AM,17.1,12.9,84,30.45,10.0,SW,3.5,-,N/A,,Partly Cloudy,220,2013-01-18 10:53:00
5:53 AM,17.1,14.0,88,30.44,10.0,SSW,4.6,-,N/A,,Scattered Clouds,210,2013-01-18 11:53:00
6:53 AM,18.0,15.1,88,30.44,10.0,South,5.8,-,N/A,,Clear,190,2013-01-18 12:53:00
7:53 AM,21.0,17.1,85,30.43,10.0,SSW,6.9,-,N/A,,Mostly Cloudy,200,2013-01-18 13:53:00
8:53 AM,24.1,19.0,81,30.43,10.0,South,8.1,-,N/A,,Partly Cloudy,190,2013-01-18 14:53:00
9:53 AM,28.0,19.9,72,30.41,10.0,South,9.2,-,N/A,,Clear,190,2013-01-18 15:53:00
10:53 AM,32.0,21.0,64,30.37,10.0,SSW,15.0,23.0,N/A,,Scattered Clouds,200,2013-01-18 16:53:00
11:53 AM,34.0,21.9,61,30.30,10.0,SSW,21.9,29.9,N/A,,Clear,210,2013-01-18 17:53:00
12:53 PM,37.9,21.9,53,30.25,10.0,SSW,24.2,32.2,N/A,,Clear,200,2013-01-18 18:53:00
1:53 PM,39.0,24.1,55,30.20,10.0,SSW,17.3,33.4,N/A,,Clear,200,2013-01-18 19:53:00
2:53 PM,39.0,24.1,55,30.16,10.0,SSW,21.9,34.5,N/A,,Clear,200,2013-01-18 20:53:00
3:53 PM,37.9,24.1,57,30.12,10.0,SSW,21.9,29.9,N/A,,Clear,200,2013-01-18 21:53:00
4:53 PM,36.0,23.0,59,30.09,10.0,South,20.7,27.6,N/A,,Clear,190,2013-01-18 22:53:00
5:53 PM,36.0,24.1,62,30.07,10.0,SSW,23.0,31.1,N/A,,Clear,200,2013-01-18 23:53:00
6:53 PM,36.0,24.1,62,30.08,10.0,SSW,17.3,28.8,N/A,,Clear,210,2013-01-19 00:53:00
7:53 PM,37.0,25.0,62,30.07,10.0,SSW,19.6,28.8,N/A,,Clear,210,2013-01-19 01:53:00
8:53 PM,37.0,26.1,65,30.05,10.0,SSW,17.3,26.5,N/A,,Clear,210,2013-01-19 02:53:00
9:53 PM,37.0,26.1,65,30.04,10.0,SSW,18.4,25.3,N/A,,Clear,210,2013-01-19 03:53:00
10:53 PM,37.0,27.0,67,30.02,10.0,SSW,17.3,24.2,N/A,,Clear,210,2013-01-19 04:53:00
11:53 PM,37.0,27.0,67,30.01,10.0,SSW,16.1,25.3,N/A,,Clear,210,2013-01-19 05:53:00